sensor_id;sensor_type;location;lat;lon;timestamp;pressure;altitude;pressure_sealevel;temperature;humidity
8890;BME280;4481;43.406;24.454;2022-12-18T00:02:21;78405.50;;;-144.09;100.00
8890;BME280;4481;43.406;24.454;2022-12-18T00:04:48;78399.25;;;-144.09;100.00
8890;BME280;4481;43.406;24.454;2022-12-18T00:07:14;78401.34;;;-144.09;100.00
8890;BME280;4481;43.406;24.454;2022-12-18T00:09:40;78415.97;;;-144.09;100.00
8890;BME280;4481;43.406;24.454;2022-12-18T00:12:07;78438.97;;;-144.09;100.00
8890;BME280;4481;43.406;24.454;2022-12-18T00:14:33;78432.69;;;-144.09;100.00
8890;BME280;4481;43.406;24.454;2022-12-18T00:16:59;78436.88;;;-144.09;100.00
8890;BME280;4481;43.406;24.454;2022-12-18T00:19:26;78434.78;;;-144.09;100.00
8890;BME280;4481;43.406;24.454;2022-12-18T00:21:52;78468.25;;;-144.09;100.00
8890;BME280;4481;43.406;24.454;2022-12-18T00:24:18;78453.59;;;-144.09;100.00
8890;BME280;4481;43.406;24.454;2022-12-18T00:26:44;78464.06;;;-144.09;100.00
8890;BME280;4481;43.406;24.454;2022-12-18T00:29:13;78453.59;;;-144.09;100.00
8890;BME280;4481;43.406;24.454;2022-12-18T00:31:39;78461.97;;;-144.09;100.00
8890;BME280;4481;43.406;24.454;2022-12-18T00:34:06;78457.78;;;-144.09;100.00
8890;BME280;4481;43.406;24.454;2022-12-18T00:36:34;78470.31;;;-144.09;100.00
8890;BME280;4481;43.406;24.454;2022-12-18T00:39:02;78476.59;;;-144.09;100.00
8890;BME280;4481;43.406;24.454;2022-12-18T00:41:28;78495.41;;;-144.09;100.00
8890;BME280;4481;43.406;24.454;2022-12-18T00:44:15;78499.59;;;-144.09;100.00
8890;BME280;4481;43.406;24.454;2022-12-18T00:46:42;78493.31;;;-144.09;100.00
8890;BME280;4481;43.406;24.454;2022-12-18T00:49:09;78505.88;;;-144.09;100.00
8890;BME280;4481;43.406;24.454;2022-12-18T00:51:35;78480.78;;;-144.09;100.00
8890;BME280;4481;43.406;24.454;2022-12-18T00:54:01;78499.59;;;-144.09;100.00
8890;BME280;4481;43.406;24.454;2022-12-18T00:56:27;78487.06;;;-144.09;100.00
8890;BME280;4481;43.406;24.454;2022-12-18T00:58:53;78472.41;;;-144.09;100.00
8890;BME280;4481;43.406;24.454;2022-12-18T01:01:20;78476.59;;;-144.09;100.00
8890;BME280;4481;43.406;24.454;2022-12-18T01:03:47;78474.50;;;-144.09;100.00
8890;BME280;4481;43.406;24.454;2022-12-18T01:06:14;78482.88;;;-144.09;100.00
8890;BME280;4481;43.406;24.454;2022-12-18T01:08:41;78503.78;;;-144.09;100.00
8890;BME280;4481;43.406;24.454;2022-12-18T01:11:09;78507.97;;;-144.09;100.00
8890;BME280;4481;43.406;24.454;2022-12-18T01:13:35;78518.41;;;-144.09;100.00
8890;BME280;4481;43.406;24.454;2022-12-18T01:16:02;78505.88;;;-144.09;100.00
8890;BME280;4481;43.406;24.454;2022-12-18T01:18:29;78522.59;;;-144.09;100.00
8890;BME280;4481;43.406;24.454;2022-12-18T01:20:56;78522.59;;;-144.09;100.00
8890;BME280;4481;43.406;24.454;2022-12-18T01:23:23;78520.50;;;-144.09;100.00
8890;BME280;4481;43.406;24.454;2022-12-18T01:25:52;78537.22;;;-144.09;100.00
8890;BME280;4481;43.406;24.454;2022-12-18T01:28:18;78533.03;;;-144.09;100.00
8890;BME280;4481;43.406;24.454;2022-12-18T01:30:44;78535.13;;;-144.09;100.00
8890;BME280;4481;43.406;24.454;2022-12-18T01:33:10;78545.59;;;-144.09;100.00
8890;BME280;4481;43.406;24.454;2022-12-18T01:35:40;78530.97;;;-144.09;100.00
8890;BME280;4481;43.406;24.454;2022-12-18T01:38:07;78520.50;;;-144.09;100.00
8890;BME280;4481;43.406;24.454;2022-12-18T01:40:33;78522.59;;;-144.09;100.00
8890;BME280;4481;43.406;24.454;2022-12-18T01:42:59;78514.22;;;-144.09;100.00
8890;BME280;4481;43.406;24.454;2022-12-18T01:45:27;78524.69;;;-144.09;100.00
8890;BME280;4481;43.406;24.454;2022-12-18T01:47:56;78530.97;;;-144.09;100.00
8890;BME280;4481;43.406;24.454;2022-12-18T01:50:25;78541.41;;;-144.09;100.00
8890;BME280;4481;43.406;24.454;2022-12-18T01:52:56;78553.97;;;-144.09;100.00
8890;BME280;4481;43.406;24.454;2022-12-18T01:55:26;78551.88;;;-144.09;100.00
8890;BME280;4481;43.406;24.454;2022-12-18T01:57:56;78581.13;;;-144.09;100.00
8890;BME280;4481;43.406;24.454;2022-12-18T02:00:24;78591.59;;;-144.09;100.00
8890;BME280;4481;43.406;24.454;2022-12-18T02:02:51;78593.69;;;-144.09;100.00
8890;BME280;4481;43.406;24.454;2022-12-18T02:05:19;78581.13;;;-144.09;100.00
8890;BME280;4481;43.406;24.454;2022-12-18T02:07:57;78576.94;;;-144.09;100.00
8890;BME280;4481;43.406;24.454;2022-12-18T02:10:30;78583.22;;;-144.09;100.00
8890;BME280;4481;43.406;24.454;2022-12-18T02:13:04;78579.03;;;-144.09;100.00
8890;BME280;4481;43.406;24.454;2022-12-18T02:15:40;78585.31;;;-144.09;100.00
8890;BME280;4481;43.406;24.454;2022-12-18T02:18:11;78572.78;;;-144.09;100.00
8890;BME280;4481;43.406;24.454;2022-12-18T02:20:44;78602.03;;;-144.09;100.00
8890;BME280;4481;43.406;24.454;2022-12-18T02:23:24;78589.50;;;-144.09;100.00
8890;BME280;4481;43.406;24.454;2022-12-18T02:26:06;78593.69;;;-144.09;100.00
8890;BME280;4481;43.406;24.454;2022-12-18T02:28:37;78608.31;;;-144.09;100.00
8890;BME280;4481;43.406;24.454;2022-12-18T02:31:11;78635.50;;;-144.09;100.00
8890;BME280;4481;43.406;24.454;2022-12-18T02:33:40;78620.84;;;-144.09;99.49
8890;BME280;4481;43.406;24.454;2022-12-18T02:36:08;78612.50;;;-144.09;99.40
8890;BME280;4481;43.406;24.454;2022-12-18T02:38:36;78627.13;;;-144.09;99.58
8890;BME280;4481;43.406;24.454;2022-12-18T02:41:04;78635.50;;;-144.09;99.26
8890;BME280;4481;43.406;24.454;2022-12-18T02:43:31;78650.13;;;-144.09;99.17
8890;BME280;4481;43.406;24.454;2022-12-18T02:45:58;78675.22;;;-144.09;99.92
8890;BME280;4481;43.406;24.454;2022-12-18T02:48:29;78691.94;;;-144.09;100.00
8890;BME280;4481;43.406;24.454;2022-12-18T02:51:00;78700.31;;;-144.09;100.00
8890;BME280;4481;43.406;24.454;2022-12-18T02:53:33;78679.41;;;-144.09;99.51
8890;BME280;4481;43.406;24.454;2022-12-18T02:56:07;78721.22;;;-144.09;100.00
8890;BME280;4481;43.406;24.454;2022-12-18T02:58:41;78725.41;;;-144.09;100.00
8890;BME280;4481;43.406;24.454;2022-12-18T03:01:16;78742.13;;;-144.09;100.00
8890;BME280;4481;43.406;24.454;2022-12-18T03:03:48;78719.13;;;-144.09;100.00
8890;BME280;4481;43.406;24.454;2022-12-18T03:06:22;78714.94;;;-144.09;100.00
8890;BME280;4481;43.406;24.454;2022-12-18T03:08:53;78735.84;;;-144.09;100.00
8890;BME280;4481;43.406;24.454;2022-12-18T03:11:24;78735.84;;;-144.09;100.00
8890;BME280;4481;43.406;24.454;2022-12-18T03:14:07;78760.94;;;-144.09;100.00
8890;BME280;4481;43.406;24.454;2022-12-18T03:16:34;78767.22;;;-144.09;100.00
8890;BME280;4481;43.406;24.454;2022-12-18T03:19:04;78750.50;;;-144.09;100.00
8890;BME280;4481;43.406;24.454;2022-12-18T03:21:37;78740.03;;;-144.09;100.00
8890;BME280;4481;43.406;24.454;2022-12-18T03:24:06;78746.31;;;-144.09;100.00
8890;BME280;4481;43.406;24.454;2022-12-18T03:26:35;78744.22;;;-144.09;100.00
8890;BME280;4481;43.406;24.454;2022-12-18T03:29:06;78752.59;;;-144.09;100.00
8890;BME280;4481;43.406;24.454;2022-12-18T03:31:34;78754.69;;;-144.09;100.00
8890;BME280;4481;43.406;24.454;2022-12-18T03:34:05;78763.03;;;-144.09;100.00
8890;BME280;4481;43.406;24.454;2022-12-18T03:36:34;78746.31;;;-144.09;99.65
8890;BME280;4481;43.406;24.454;2022-12-18T03:39:00;78742.13;;;-144.09;99.75
8890;BME280;4481;43.406;24.454;2022-12-18T03:41:31;78744.22;;;-144.09;100.00
8890;BME280;4481;43.406;24.454;2022-12-18T03:44:04;78729.59;;;-144.09;100.00
8890;BME280;4481;43.406;24.454;2022-12-18T03:46:39;78735.84;;;-144.09;99.96
8890;BME280;4481;43.406;24.454;2022-12-18T03:49:10;78735.84;;;-144.09;99.97
8890;BME280;4481;43.406;24.454;2022-12-18T03:51:40;78750.50;;;-144.09;99.91
8890;BME280;4481;43.406;24.454;2022-12-18T03:54:10;78765.13;;;-144.09;99.65
8890;BME280;4481;43.406;24.454;2022-12-18T03:56:40;78760.94;;;-144.09;99.70
8890;BME280;4481;43.406;24.454;2022-12-18T03:59:10;78777.69;;;-144.09;99.88
8890;BME280;4481;43.406;24.454;2022-12-18T04:01:41;78769.31;;;-144.09;99.59
8890;BME280;4481;43.406;24.454;2022-12-18T04:04:10;78771.41;;;-144.09;99.09
8890;BME280;4481;43.406;24.454;2022-12-18T04:06:38;78792.31;;;-144.09;99.63
8890;BME280;4481;43.406;24.454;2022-12-18T04:09:05;78781.84;;;-144.09;99.25
8890;BME280;4481;43.406;24.454;2022-12-18T04:11:32;78777.69;;;-144.09;99.47
8890;BME280;4481;43.406;24.454;2022-12-18T04:13:58;78802.78;;;-144.09;100.00
8890;BME280;4481;43.406;24.454;2022-12-18T04:16:25;78811.13;;;-144.09;100.00
8890;BME280;4481;43.406;24.454;2022-12-18T04:18:52;78829.94;;;-144.09;100.00
8890;BME280;4481;43.406;24.454;2022-12-18T04:21:18;78838.31;;;-144.09;100.00
8890;BME280;4481;43.406;24.454;2022-12-18T04:23:45;78850.84;;;-144.09;100.00
8890;BME280;4481;43.406;24.454;2022-12-18T04:26:11;78857.13;;;-144.09;100.00
8890;BME280;4481;43.406;24.454;2022-12-18T04:28:37;78829.94;;;-144.09;100.00
8890;BME280;4481;43.406;24.454;2022-12-18T04:31:03;78836.22;;;-144.09;100.00
8890;BME280;4481;43.406;24.454;2022-12-18T04:33:30;78819.50;;;-144.09;100.00
8890;BME280;4481;43.406;24.454;2022-12-18T04:35:56;78815.31;;;-144.09;100.00
8890;BME280;4481;43.406;24.454;2022-12-18T04:38:22;78838.31;;;-144.09;100.00
8890;BME280;4481;43.406;24.454;2022-12-18T04:40:48;78825.78;;;-144.09;100.00
8890;BME280;4481;43.406;24.454;2022-12-18T04:43:14;78840.41;;;-144.09;100.00
8890;BME280;4481;43.406;24.454;2022-12-18T04:45:41;78832.03;;;-144.09;100.00
8890;BME280;4481;43.406;24.454;2022-12-18T04:48:07;78838.31;;;-144.09;100.00
8890;BME280;4481;43.406;24.454;2022-12-18T04:50:34;78821.59;;;-144.09;100.00
8890;BME280;4481;43.406;24.454;2022-12-18T04:53:00;78806.94;;;-144.09;100.00
8890;BME280;4481;43.406;24.454;2022-12-18T04:55:26;78798.59;;;-144.09;100.00
8890;BME280;4481;43.406;24.454;2022-12-18T04:57:52;78802.78;;;-144.09;100.00
8890;BME280;4481;43.406;24.454;2022-12-18T05:00:18;78813.22;;;-144.09;100.00
8890;BME280;4481;43.406;24.454;2022-12-18T05:02:44;78798.59;;;-144.09;100.00
8890;BME280;4481;43.406;24.454;2022-12-18T05:05:10;78798.59;;;-144.09;100.00
8890;BME280;4481;43.406;24.454;2022-12-18T05:07:37;78800.69;;;-144.09;100.00
8890;BME280;4481;43.406;24.454;2022-12-18T05:10:04;78796.50;;;-144.09;100.00
8890;BME280;4481;43.406;24.454;2022-12-18T05:12:31;78817.41;;;-144.09;100.00
8890;BME280;4481;43.406;24.454;2022-12-18T05:14:57;78817.41;;;-144.09;100.00
8890;BME280;4481;43.406;24.454;2022-12-18T05:17:23;78840.41;;;-144.09;100.00
8890;BME280;4481;43.406;24.454;2022-12-18T05:19:49;78852.94;;;-144.09;100.00
8890;BME280;4481;43.406;24.454;2022-12-18T05:22:15;78842.50;;;-144.09;100.00
8890;BME280;4481;43.406;24.454;2022-12-18T05:24:42;78857.13;;;-144.09;100.00
8890;BME280;4481;43.406;24.454;2022-12-18T05:27:08;78850.84;;;-144.09;100.00
8890;BME280;4481;43.406;24.454;2022-12-18T05:29:34;78865.50;;;-144.09;100.00
8890;BME280;4481;43.406;24.454;2022-12-18T05:32:01;78878.03;;;-144.09;100.00
8890;BME280;4481;43.406;24.454;2022-12-18T05:34:27;78863.41;;;-144.09;100.00
8890;BME280;4481;43.406;24.454;2022-12-18T05:36:53;78875.94;;;-144.09;100.00
8890;BME280;4481;43.406;24.454;2022-12-18T05:39:19;78871.78;;;-144.09;100.00
8890;BME280;4481;43.406;24.454;2022-12-18T05:41:46;78867.59;;;-144.09;100.00
8890;BME280;4481;43.406;24.454;2022-12-18T05:44:12;78880.13;;;-144.09;100.00
8890;BME280;4481;43.406;24.454;2022-12-18T05:46:38;78871.78;;;-144.09;100.00
8890;BME280;4481;43.406;24.454;2022-12-18T05:49:04;78852.94;;;-144.09;99.90
8890;BME280;4481;43.406;24.454;2022-12-18T05:51:30;78855.03;;;-144.09;99.94
8890;BME280;4481;43.406;24.454;2022-12-18T05:53:56;78869.69;;;-144.09;100.00
8890;BME280;4481;43.406;24.454;2022-12-18T05:56:23;78863.41;;;-144.09;100.00
8890;BME280;4481;43.406;24.454;2022-12-18T05:58:52;78873.84;;;-144.09;100.00
8890;BME280;4481;43.406;24.454;2022-12-18T06:01:21;78878.03;;;-144.09;100.00
8890;BME280;4481;43.406;24.454;2022-12-18T06:03:47;78886.41;;;-144.09;100.00
8890;BME280;4481;43.406;24.454;2022-12-18T06:06:15;78869.69;;;-144.09;100.00
8890;BME280;4481;43.406;24.454;2022-12-18T06:08:42;78875.94;;;-144.09;100.00
8890;BME280;4481;43.406;24.454;2022-12-18T06:11:08;78888.50;;;-144.09;100.00
8890;BME280;4481;43.406;24.454;2022-12-18T06:13:34;78915.69;;;-144.09;100.00
8890;BME280;4481;43.406;24.454;2022-12-18T06:16:03;78903.13;;;-144.09;100.00
8890;BME280;4481;43.406;24.454;2022-12-18T06:18:29;78896.84;;;-144.09;100.00
8890;BME280;4481;43.406;24.454;2022-12-18T06:20:55;78903.13;;;-144.09;100.00
8890;BME280;4481;43.406;24.454;2022-12-18T06:23:21;78905.22;;;-144.09;100.00
8890;BME280;4481;43.406;24.454;2022-12-18T06:25:47;78909.41;;;-144.09;100.00
8890;BME280;4481;43.406;24.454;2022-12-18T06:28:14;78907.31;;;-144.09;100.00
8890;BME280;4481;43.406;24.454;2022-12-18T06:30:43;78921.94;;;-144.09;100.00
8890;BME280;4481;43.406;24.454;2022-12-18T06:33:09;78919.84;;;-144.09;100.00
8890;BME280;4481;43.406;24.454;2022-12-18T06:35:36;78915.69;;;-144.09;100.00
8890;BME280;4481;43.406;24.454;2022-12-18T06:38:02;78932.41;;;-144.09;100.00
8890;BME280;4481;43.406;24.454;2022-12-18T06:40:29;78924.03;;;-144.09;100.00
8890;BME280;4481;43.406;24.454;2022-12-18T06:42:55;78911.50;;;-144.09;100.00
8890;BME280;4481;43.406;24.454;2022-12-18T06:45:21;78913.59;;;-144.09;100.00
8890;BME280;4481;43.406;24.454;2022-12-18T06:47:47;78888.50;;;-144.09;99.86
8890;BME280;4481;43.406;24.454;2022-12-18T06:50:14;78886.41;;;-144.09;99.31
8890;BME280;4481;43.406;24.454;2022-12-18T06:52:40;78890.59;;;-144.09;100.00
8890;BME280;4481;43.406;24.454;2022-12-18T06:55:08;78886.41;;;-144.09;100.00
8890;BME280;4481;43.406;24.454;2022-12-18T06:57:34;78880.13;;;-144.09;99.52
8890;BME280;4481;43.406;24.454;2022-12-18T07:00:00;78909.41;;;-144.09;99.89
8890;BME280;4481;43.406;24.454;2022-12-18T07:02:26;78894.78;;;-144.09;98.86
8890;BME280;4481;43.406;24.454;2022-12-18T07:04:52;78892.69;;;-144.09;99.39
8890;BME280;4481;43.406;24.454;2022-12-18T07:07:19;78913.59;;;-144.09;98.78
8890;BME280;4481;43.406;24.454;2022-12-18T07:09:45;78896.84;;;-144.09;98.60
8890;BME280;4481;43.406;24.454;2022-12-18T07:12:11;78863.41;;;-144.09;97.82
8890;BME280;4481;43.406;24.454;2022-12-18T07:14:37;78857.13;;;-144.09;97.22
8890;BME280;4481;43.406;24.454;2022-12-18T07:17:03;78852.94;;;-144.09;97.20
8890;BME280;4481;43.406;24.454;2022-12-18T07:19:30;78848.78;;;-144.09;96.69
8890;BME280;4481;43.406;24.454;2022-12-18T07:21:56;78859.22;;;-144.09;97.23
8890;BME280;4481;43.406;24.454;2022-12-18T07:24:23;78834.13;;;-144.09;96.63
8890;BME280;4481;43.406;24.454;2022-12-18T07:26:49;78832.03;;;-144.09;97.52
8890;BME280;4481;43.406;24.454;2022-12-18T07:29:15;78825.78;;;-144.09;96.94
8890;BME280;4481;43.406;24.454;2022-12-18T07:31:41;78829.94;;;-144.09;95.94
8890;BME280;4481;43.406;24.454;2022-12-18T07:34:10;78840.41;;;-144.09;95.37
8890;BME280;4481;43.406;24.454;2022-12-18T07:36:36;78836.22;;;-144.09;95.61
8890;BME280;4481;43.406;24.454;2022-12-18T07:39:02;78827.84;;;-144.09;95.40
8890;BME280;4481;43.406;24.454;2022-12-18T07:41:29;78842.50;;;-144.09;96.08
8890;BME280;4481;43.406;24.454;2022-12-18T07:43:55;78861.31;;;-144.09;96.12
8890;BME280;4481;43.406;24.454;2022-12-18T07:46:21;78857.13;;;-144.09;96.93
8890;BME280;4481;43.406;24.454;2022-12-18T07:48:48;78834.13;;;-144.09;96.70
8890;BME280;4481;43.406;24.454;2022-12-18T07:51:14;78842.50;;;-144.09;96.05
8890;BME280;4481;43.406;24.454;2022-12-18T07:53:40;78863.41;;;-144.09;96.86
8890;BME280;4481;43.406;24.454;2022-12-18T07:56:09;78865.50;;;-144.09;97.14
8890;BME280;4481;43.406;24.454;2022-12-18T07:58:37;78901.03;;;-144.09;97.63
8890;BME280;4481;43.406;24.454;2022-12-18T08:01:04;78913.59;;;-144.09;98.32
8890;BME280;4481;43.406;24.454;2022-12-18T08:03:30;78934.50;;;-144.09;98.54
8890;BME280;4481;43.406;24.454;2022-12-18T08:05:59;78955.41;;;-144.09;99.53
8890;BME280;4481;43.406;24.454;2022-12-18T08:08:25;78953.31;;;-144.09;98.95
8890;BME280;4481;43.406;24.454;2022-12-18T08:10:51;78957.50;;;-144.09;99.54
8890;BME280;4481;43.406;24.454;2022-12-18T08:13:17;78944.94;;;-144.09;99.33
8890;BME280;4481;43.406;24.454;2022-12-18T08:15:44;78940.78;;;-144.09;98.74
8890;BME280;4481;43.406;24.454;2022-12-18T08:18:10;78953.31;;;-144.09;98.35
8890;BME280;4481;43.406;24.454;2022-12-18T08:20:36;78955.41;;;-144.09;98.27
8890;BME280;4481;43.406;24.454;2022-12-18T08:23:02;78951.22;;;-144.09;98.23
8890;BME280;4481;43.406;24.454;2022-12-18T08:25:28;78988.88;;;-144.09;98.78
8890;BME280;4481;43.406;24.454;2022-12-18T08:27:54;78986.78;;;-144.09;98.11
8890;BME280;4481;43.406;24.454;2022-12-18T08:30:22;78982.59;;;-144.09;98.46
8890;BME280;4481;43.406;24.454;2022-12-18T08:32:51;78972.13;;;-144.09;98.04
8890;BME280;4481;43.406;24.454;2022-12-18T08:35:18;78980.50;;;-144.09;97.76
8890;BME280;4481;43.406;24.454;2022-12-18T08:37:44;78972.13;;;-144.09;97.30
8890;BME280;4481;43.406;24.454;2022-12-18T08:40:11;78982.59;;;-144.09;97.02
8890;BME280;4481;43.406;24.454;2022-12-18T08:42:38;78988.88;;;-144.09;97.76
8890;BME280;4481;43.406;24.454;2022-12-18T08:45:22;78972.13;;;-144.09;97.09
8890;BME280;4481;43.406;24.454;2022-12-18T08:47:48;78963.78;;;-144.09;95.23
8890;BME280;4481;43.406;24.454;2022-12-18T08:50:14;78938.69;;;-144.09;94.84
8890;BME280;4481;43.406;24.454;2022-12-18T08:52:41;78917.78;;;-144.09;94.57
8890;BME280;4481;43.406;24.454;2022-12-18T08:55:08;78915.69;;;-144.09;94.24
8890;BME280;4481;43.406;24.454;2022-12-18T08:57:34;78924.03;;;-144.09;93.70
8890;BME280;4481;43.406;24.454;2022-12-18T09:00:00;78921.94;;;-144.09;93.69
8890;BME280;4481;43.406;24.454;2022-12-18T09:02:28;78921.94;;;-144.09;94.94
8890;BME280;4481;43.406;24.454;2022-12-18T09:04:54;78919.84;;;-144.09;94.91
8890;BME280;4481;43.406;24.454;2022-12-18T09:07:21;78917.78;;;-144.09;94.32
8890;BME280;4481;43.406;24.454;2022-12-18T09:09:47;78896.84;;;-144.09;94.30
8890;BME280;4481;43.406;24.454;2022-12-18T09:12:13;78896.84;;;-144.09;93.19
8890;BME280;4481;43.406;24.454;2022-12-18T09:14:39;78882.22;;;-144.09;92.87
8890;BME280;4481;43.406;24.454;2022-12-18T09:17:05;78905.22;;;-144.09;93.51
8890;BME280;4481;43.406;24.454;2022-12-18T09:19:31;78919.84;;;-144.09;93.25
8890;BME280;4481;43.406;24.454;2022-12-18T09:21:57;78898.94;;;-144.09;92.60
8890;BME280;4481;43.406;24.454;2022-12-18T09:24:24;78896.84;;;-144.09;92.09
8890;BME280;4481;43.406;24.454;2022-12-18T09:26:53;78882.22;;;-144.09;91.77
8890;BME280;4481;43.406;24.454;2022-12-18T09:29:19;78873.84;;;-144.09;91.58
8890;BME280;4481;43.406;24.454;2022-12-18T09:31:46;78861.31;;;-144.09;91.39
8890;BME280;4481;43.406;24.454;2022-12-18T09:34:12;78863.41;;;-144.09;91.17
8890;BME280;4481;43.406;24.454;2022-12-18T09:36:38;78867.59;;;-144.09;89.48
8890;BME280;4481;43.406;24.454;2022-12-18T09:39:05;78859.22;;;-144.09;87.99
8890;BME280;4481;43.406;24.454;2022-12-18T09:41:40;78867.59;;;-144.09;88.97
8890;BME280;4481;43.406;24.454;2022-12-18T09:44:13;78869.69;;;-144.09;89.53
8890;BME280;4481;43.406;24.454;2022-12-18T09:46:44;78884.31;;;-144.09;89.76
8890;BME280;4481;43.406;24.454;2022-12-18T09:49:14;78888.50;;;-144.09;89.66
8890;BME280;4481;43.406;24.454;2022-12-18T09:51:45;78926.13;;;-144.09;90.18
8890;BME280;4481;43.406;24.454;2022-12-18T09:54:18;78888.50;;;-144.09;90.11
8890;BME280;4481;43.406;24.454;2022-12-18T09:56:46;78888.50;;;-144.09;91.41
8890;BME280;4481;43.406;24.454;2022-12-18T09:59:20;78882.22;;;-144.09;91.05
8890;BME280;4481;43.406;24.454;2022-12-18T10:01:47;78875.94;;;-144.09;89.63
8890;BME280;4481;43.406;24.454;2022-12-18T10:04:13;78894.78;;;-144.09;90.33
8890;BME280;4481;43.406;24.454;2022-12-18T10:06:44;78873.84;;;-144.09;89.44
8890;BME280;4481;43.406;24.454;2022-12-18T10:09:16;78886.41;;;-144.09;89.22
8890;BME280;4481;43.406;24.454;2022-12-18T10:11:53;78890.59;;;-144.09;89.66
8890;BME280;4481;43.406;24.454;2022-12-18T10:14:30;78886.41;;;-144.09;89.76
8890;BME280;4481;43.406;24.454;2022-12-18T10:17:05;78884.31;;;-144.09;89.48
8890;BME280;4481;43.406;24.454;2022-12-18T10:19:38;78884.31;;;-144.09;89.41
8890;BME280;4481;43.406;24.454;2022-12-18T10:22:15;78884.31;;;-144.09;90.64
8890;BME280;4481;43.406;24.454;2022-12-18T10:24:48;78882.22;;;-144.09;89.03
8890;BME280;4481;43.406;24.454;2022-12-18T10:27:23;78865.50;;;-144.09;89.56
8890;BME280;4481;43.406;24.454;2022-12-18T10:29:50;78861.31;;;-144.09;88.72
8890;BME280;4481;43.406;24.454;2022-12-18T10:32:19;78882.22;;;-144.09;88.57
8890;BME280;4481;43.406;24.454;2022-12-18T10:34:46;78901.03;;;-144.09;89.43
8890;BME280;4481;43.406;24.454;2022-12-18T10:37:16;78907.31;;;-144.09;89.41
8890;BME280;4481;43.406;24.454;2022-12-18T10:39:43;78896.84;;;-144.09;90.61
8890;BME280;4481;43.406;24.454;2022-12-18T10:42:11;78867.59;;;-144.09;90.38
8890;BME280;4481;43.406;24.454;2022-12-18T10:44:39;78834.13;;;-144.09;89.68
8890;BME280;4481;43.406;24.454;2022-12-18T10:47:09;78827.84;;;-144.09;88.56
8890;BME280;4481;43.406;24.454;2022-12-18T10:49:40;78825.78;;;-144.09;88.13
8890;BME280;4481;43.406;24.454;2022-12-18T10:52:14;78817.41;;;-144.09;88.84
8890;BME280;4481;43.406;24.454;2022-12-18T10:54:48;78832.03;;;-144.09;88.52
8890;BME280;4481;43.406;24.454;2022-12-18T10:57:15;78829.94;;;-144.09;88.92
8890;BME280;4481;43.406;24.454;2022-12-18T10:59:51;78804.84;;;-144.09;87.43
8890;BME280;4481;43.406;24.454;2022-12-18T11:02:26;78836.22;;;-144.09;88.36
8890;BME280;4481;43.406;24.454;2022-12-18T11:04:52;78817.41;;;-144.09;88.37
8890;BME280;4481;43.406;24.454;2022-12-18T11:07:19;78806.94;;;-144.09;89.78
8890;BME280;4481;43.406;24.454;2022-12-18T11:09:59;78827.84;;;-144.09;87.42
8890;BME280;4481;43.406;24.454;2022-12-18T11:12:28;78809.03;;;-144.09;87.25
8890;BME280;4481;43.406;24.454;2022-12-18T11:14:55;78813.22;;;-144.09;87.47
8890;BME280;4481;43.406;24.454;2022-12-18T11:17:28;78815.31;;;-144.09;86.43
8890;BME280;4481;43.406;24.454;2022-12-18T11:19:56;78838.31;;;-144.09;85.79
8890;BME280;4481;43.406;24.454;2022-12-18T11:22:25;78834.13;;;-144.09;85.24
8890;BME280;4481;43.406;24.454;2022-12-18T11:24:55;78825.78;;;-144.09;84.62
8890;BME280;4481;43.406;24.454;2022-12-18T11:27:22;78850.84;;;-144.09;85.21
8890;BME280;4481;43.406;24.454;2022-12-18T11:29:50;78869.69;;;-144.09;85.59
8890;BME280;4481;43.406;24.454;2022-12-18T11:32:31;78875.94;;;-144.09;85.94
8890;BME280;4481;43.406;24.454;2022-12-18T11:35:04;78898.94;;;-144.09;86.48
8890;BME280;4481;43.406;24.454;2022-12-18T11:37:33;78901.03;;;-144.09;86.12
8890;BME280;4481;43.406;24.454;2022-12-18T11:40:02;78878.03;;;-144.09;85.62
8890;BME280;4481;43.406;24.454;2022-12-18T11:42:37;78878.03;;;-144.09;86.51
8890;BME280;4481;43.406;24.454;2022-12-18T11:45:20;78882.22;;;-144.09;86.13
8890;BME280;4481;43.406;24.454;2022-12-18T11:47:54;78865.50;;;-144.09;85.08
8890;BME280;4481;43.406;24.454;2022-12-18T11:50:26;78859.22;;;-144.09;85.20
8890;BME280;4481;43.406;24.454;2022-12-18T11:52:54;78827.84;;;-144.09;85.24
8890;BME280;4481;43.406;24.454;2022-12-18T11:55:28;78838.31;;;-144.09;86.12
8890;BME280;4481;43.406;24.454;2022-12-18T11:58:03;78855.03;;;-144.09;87.21
8890;BME280;4481;43.406;24.454;2022-12-18T12:00:31;78869.69;;;-144.09;86.65
8890;BME280;4481;43.406;24.454;2022-12-18T12:03:34;78873.84;;;-144.09;87.71
8890;BME280;4481;43.406;24.454;2022-12-18T12:06:10;78852.94;;;-144.09;86.76
8890;BME280;4481;43.406;24.454;2022-12-18T12:08:48;78836.22;;;-144.09;86.02
8890;BME280;4481;43.406;24.454;2022-12-18T12:11:23;78838.31;;;-144.09;84.37
8890;BME280;4481;43.406;24.454;2022-12-18T12:14:09;78873.84;;;-144.09;84.09
8890;BME280;4481;43.406;24.454;2022-12-18T12:16:48;78884.31;;;-144.09;85.33
8890;BME280;4481;43.406;24.454;2022-12-18T12:19:25;78894.78;;;-144.09;85.51
8890;BME280;4481;43.406;24.454;2022-12-18T12:22:03;78903.13;;;-144.09;84.10
8890;BME280;4481;43.406;24.454;2022-12-18T12:24:47;78911.50;;;-144.09;84.69
8890;BME280;4481;43.406;24.454;2022-12-18T12:27:22;78928.22;;;-144.09;84.10
8890;BME280;4481;43.406;24.454;2022-12-18T12:30:00;78913.59;;;-144.09;82.87
8890;BME280;4481;43.406;24.454;2022-12-18T12:32:43;78936.59;;;-144.09;83.16
8890;BME280;4481;43.406;24.454;2022-12-18T12:35:27;78930.31;;;-144.09;83.66
8890;BME280;4481;43.406;24.454;2022-12-18T12:38:04;78942.84;;;-144.09;83.77
8890;BME280;4481;43.406;24.454;2022-12-18T12:40:34;78921.94;;;-144.09;84.11
8890;BME280;4481;43.406;24.454;2022-12-18T12:43:03;78959.59;;;-144.09;85.81
8890;BME280;4481;43.406;24.454;2022-12-18T12:45:44;78970.03;;;-144.09;85.38
8890;BME280;4481;43.406;24.454;2022-12-18T12:48:18;78963.78;;;-144.09;85.06
8890;BME280;4481;43.406;24.454;2022-12-18T12:50:48;78940.78;;;-144.09;84.13
8890;BME280;4481;43.406;24.454;2022-12-18T12:53:23;78959.59;;;-144.09;84.67
8890;BME280;4481;43.406;24.454;2022-12-18T12:55:51;78972.13;;;-144.09;83.72